Time;durP1;ratioP1;P1;durP2;ratioP2;P2;SDS_P1;SDS_P2;PMS_P1;PMS_P2;Temp;Humidity;BMP_temperature;BMP_pressure;BME280_temperature;BME280_humidity;BME280_pressure;Samples;Min_cycle;Max_cycle;Signal;HPM_P1;HPM_P2
2022/06/08 00:02:30;;;;;;;4.47;3.25;;;20.50;70.60;;;;;;5071038;28;20024;-69
2022/06/08 00:04:56;;;;;;;5.63;2.75;;;20.50;70.60;;;;;;5073763;28;20029;-69
2022/06/08 00:07:22;;;;;;;4.53;2.90;;;20.50;70.70;;;;;;5069967;28;20051;-69
2022/06/08 00:09:48;;;;;;;3.53;2.45;;;20.50;70.70;;;;;;5073673;28;20041;-68
2022/06/08 00:12:14;;;;;;;5.47;2.97;;;20.50;70.90;;;;;;5065783;28;20495;-68
2022/06/08 00:14:39;;;;;;;3.88;2.70;;;20.50;71.10;;;;;;5072149;28;20033;-68
2022/06/08 00:17:05;;;;;;;4.63;2.67;;;20.50;71.10;;;;;;5065184;28;20028;-68
2022/06/08 00:19:31;;;;;;;4.75;2.70;;;20.50;71.30;;;;;;5054814;28;20037;-68
2022/06/08 00:21:57;;;;;;;4.82;2.92;;;20.50;71.50;;;;;;5061037;28;20025;-68
2022/06/08 00:24:22;;;;;;;5.53;3.42;;;20.50;71.60;;;;;;5073327;28;20384;-68
2022/06/08 00:26:48;;;;;;;4.18;2.53;;;20.50;71.70;;;;;;5067807;28;20035;-68
2022/06/08 00:29:14;;;;;;;4.18;2.90;;;20.50;71.60;;;;;;5072188;28;20029;-68
2022/06/08 00:31:40;;;;;;;5.07;2.70;;;20.50;71.70;;;;;;5064054;28;20021;-69
2022/06/08 00:34:05;;;;;;;6.45;3.10;;;20.50;71.70;;;;;;5073310;28;20043;-69
2022/06/08 00:36:31;;;;;;;4.28;2.80;;;20.50;71.60;;;;;;5060229;28;20040;-69
2022/06/08 00:38:56;;;;;;;4.50;2.67;;;20.50;71.60;;;;;;5073085;28;20048;-68
2022/06/08 00:41:44;;;;;;;4.15;2.67;;;20.50;71.60;;;;;;5060348;28;20032;-68
2022/06/08 00:44:30;;;;;;;5.07;2.72;;;20.50;71.70;;;;;;5073126;28;20121;-68
2022/06/08 00:46:58;;;;;;;3.42;2.60;;;20.50;71.90;;;;;;5065935;28;20025;-68
2022/06/08 00:49:58;;;;;;;3.95;2.85;;;20.50;72.10;;;;;;5071476;28;20399;-68
2022/06/08 00:52:25;;;;;;;3.20;2.50;;;20.50;71.70;;;;;;5066248;28;20098;-68
2022/06/08 00:54:57;;;;;;;3.78;2.58;;;20.50;71.90;;;;;;5072838;28;20387;-68
2022/06/08 00:57:24;;;;;;;3.83;3.10;;;20.50;72.20;;;;;;5060557;28;20037;-67
2022/06/08 00:59:59;;;;;;;4.22;2.78;;;20.50;72.30;;;;;;5052506;28;20052;-68
2022/06/08 01:02:25;;;;;;;4.75;3.00;;;20.50;72.60;;;;;;5073408;28;20029;-68
2022/06/08 01:05:18;;;;;;;5.45;3.28;;;20.50;72.80;;;;;;5075924;28;20426;-68
2022/06/08 01:07:44;;;;;;;5.07;3.38;;;20.50;72.50;;;;;;5052723;28;20408;-68
2022/06/08 01:10:20;;;;;;;4.15;2.72;;;20.50;72.70;;;;;;5052903;28;20529;-68
2022/06/08 01:12:46;;;;;;;3.92;2.88;;;20.40;72.90;;;;;;5052784;28;20036;-68
2022/06/08 01:15:15;;;;;;;6.30;2.88;;;20.40;73.40;;;;;;5053308;28;20376;-69
2022/06/08 01:17:41;;;;;;;3.65;2.85;;;20.30;73.80;;;;;;5064249;28;20032;-69
2022/06/08 01:20:10;;;;;;;6.47;3.50;;;20.30;74.00;;;;;;5064798;28;20032;-69
2022/06/08 01:22:36;;;;;;;4.43;3.55;;;20.20;73.60;;;;;;5064814;28;20068;-69
2022/06/08 01:25:04;;;;;;;6.05;3.05;;;20.20;74.20;;;;;;5057064;28;20031;-69
2022/06/08 01:27:48;;;;;;;4.43;3.58;;;20.10;74.60;;;;;;5056630;28;20074;-69
2022/06/08 01:30:42;;;;;;;5.50;3.10;;;20.10;74.40;;;;;;5054890;28;20534;-69
2022/06/08 01:33:34;;;;;;;5.55;3.28;;;20.00;74.70;;;;;;5062791;28;20347;-69
2022/06/08 01:36:21;;;;;;;9.05;4.03;;;20.00;74.80;;;;;;5070606;28;20507;-69
2022/06/08 01:39:02;;;;;;;3.90;3.20;;;19.90;75.00;;;;;;5064544;28;20342;-69
2022/06/08 01:41:50;;;;;;;5.40;3.55;;;19.90;75.30;;;;;;5052455;28;20555;-69
2022/06/08 01:44:21;;;;;;;6.40;3.90;;;19.80;75.30;;;;;;5055861;28;20032;-69
2022/06/08 01:47:12;;;;;;;5.05;3.58;;;19.80;75.30;;;;;;5064287;28;20762;-69
2022/06/08 01:49:51;;;;;;;8.02;3.75;;;19.80;75.60;;;;;;5054506;28;20036;-68
2022/06/08 01:52:21;;;;;;;5.50;3.97;;;19.70;76.20;;;;;;5060689;28;20108;-67
2022/06/08 01:55:23;;;;;;;4.85;3.45;;;19.70;76.10;;;;;;5053524;28;20037;-68
2022/06/08 01:58:07;;;;;;;5.57;3.67;;;19.60;76.20;;;;;;5056334;28;20043;-69
2022/06/08 02:00:42;;;;;;;4.40;3.53;;;19.50;76.30;;;;;;5051748;28;20032;-68
2022/06/08 02:03:17;;;;;;;7.35;3.40;;;19.50;77.00;;;;;;5065773;28;20087;-69
2022/06/08 02:05:49;;;;;;;5.30;4.20;;;19.40;77.60;;;;;;5063266;28;20436;-68
2022/06/08 02:08:39;;;;;;;5.78;4.03;;;19.40;77.70;;;;;;5065904;28;20041;-69
2022/06/08 02:11:17;;;;;;;5.88;3.92;;;19.30;77.50;;;;;;5051210;28;20033;-69
2022/06/08 02:13:57;;;;;;;4.57;3.30;;;19.30;78.10;;;;;;5051733;28;20106;-69
2022/06/08 02:16:33;;;;;;;4.03;3.33;;;19.30;78.60;;;;;;5051947;28;20059;-69
2022/06/08 02:19:12;;;;;;;5.72;3.75;;;19.20;79.20;;;;;;5051745;28;20025;-69
2022/06/08 02:21:48;;;;;;;5.05;4.18;;;19.20;79.60;;;;;;5056045;28;20066;-69
2022/06/08 02:24:23;;;;;;;5.40;3.45;;;19.20;79.80;;;;;;5063929;28;20064;-69
2022/06/08 02:27:07;;;;;;;;;;;19.10;80.00;;;;;;5070461;28;20059;-69
2022/06/08 02:29:41;;;;;;;4.78;3.97;;;19.20;78.80;;;;;;5066973;28;19916;-70
2022/06/08 02:35:01;;;;;;;5.85;3.70;;;19.10;79.90;;;;;;5051278;28;20044;-69
2022/06/08 02:37:31;;;;;;;5.55;4.03;;;19.10;80.20;;;;;;5053946;28;20037;-70
2022/06/08 02:40:21;;;;;;;6.40;4.45;;;19.10;80.30;;;;;;5070148;28;20028;-69
2022/06/08 02:42:57;;;;;;;12.07;5.50;;;19.10;80.50;;;;;;5057688;28;20074;-70
2022/06/08 02:45:28;;;;;;;6.05;4.15;;;19.10;80.60;;;;;;5051268;28;20037;-69
2022/06/08 02:48:00;;;;;;;7.47;4.13;;;19.10;80.80;;;;;;5053992;28;20035;-70
2022/06/08 02:50:26;;;;;;;8.20;4.80;;;19.10;80.90;;;;;;5051121;28;20037;-70
2022/06/08 02:53:16;;;;;;;5.70;4.40;;;19.10;80.90;;;;;;5062185;28;20069;-67
2022/06/08 02:56:00;;;;;;;9.38;4.97;;;19.10;81.00;;;;;;5071388;28;20028;-67
2022/06/08 02:58:36;;;;;;;5.85;4.40;;;19.20;80.90;;;;;;5053450;28;20029;-68
2022/06/08 03:01:12;;;;;;;6.28;4.57;;;19.20;80.50;;;;;;5052566;28;20028;-68
2022/06/08 03:04:00;;;;;;;8.52;4.75;;;19.20;80.40;;;;;;5069641;28;20025;-68
2022/06/08 03:06:32;;;;;;;9.02;4.43;;;19.30;80.40;;;;;;5055041;28;20048;-67
2022/06/08 03:09:01;;;;;;;6.00;4.50;;;19.30;80.50;;;;;;5057836;28;20053;-67
2022/06/08 03:11:36;;;;;;;5.18;4.15;;;19.30;80.90;;;;;;5068464;28;20040;-67
2022/06/08 03:14:07;;;;;;;6.18;4.03;;;19.30;80.50;;;;;;5067573;28;20025;-66
2022/06/08 03:16:35;;;;;;;4.80;3.83;;;19.20;80.40;;;;;;5055129;28;20040;-67
2022/06/08 03:19:01;;;;;;;6.00;4.20;;;19.20;80.50;;;;;;5068642;28;20670;-67
2022/06/08 03:21:27;;;;;;;5.50;3.92;;;19.20;80.60;;;;;;5052880;28;20082;-67
2022/06/08 03:23:54;;;;;;;6.20;3.75;;;19.30;80.80;;;;;;5058534;28;20048;-67
2022/06/08 03:26:23;;;;;;;6.45;4.15;;;19.30;81.30;;;;;;5059661;28;20024;-69
2022/06/08 03:28:50;;;;;;;5.88;3.72;;;19.30;80.90;;;;;;5064680;28;20037;-67
2022/06/08 03:31:15;;;;;;;5.32;3.53;;;19.30;81.00;;;;;;5066372;28;20039;-66
2022/06/08 03:33:41;;;;;;;6.95;4.03;;;19.30;80.90;;;;;;5074503;28;20021;-66
2022/06/08 03:36:07;;;;;;;5.03;3.45;;;19.30;81.00;;;;;;5067919;28;20020;-66
2022/06/08 03:38:34;;;;;;;5.10;3.72;;;19.30;81.30;;;;;;5074048;28;20107;-67
2022/06/08 03:41:00;;;;;;;4.72;3.70;;;19.30;81.50;;;;;;5066652;28;20407;-67
2022/06/08 03:43:26;;;;;;;5.35;3.67;;;19.40;81.40;;;;;;5065498;28;20025;-68
2022/06/08 03:45:55;;;;;;;5.07;3.40;;;19.40;81.70;;;;;;5066211;28;20029;-68
2022/06/08 03:48:22;;;;;;;6.75;4.40;;;19.40;82.00;;;;;;5073098;28;20415;-68
2022/06/08 03:50:53;;;;;;;6.50;3.83;;;19.40;81.90;;;;;;5063331;28;20387;-68
2022/06/08 03:53:24;;;;;;;4.13;3.45;;;19.40;82.40;;;;;;5070975;28;20448;-68
2022/06/08 03:55:51;;;;;;;5.68;3.17;;;19.50;82.60;;;;;;5073133;28;20036;-68
2022/06/08 03:58:18;;;;;;;4.32;3.55;;;19.50;82.50;;;;;;5054262;28;20061;-68
2022/06/08 04:00:45;;;;;;;6.47;4.07;;;19.60;82.80;;;;;;5060739;28;20517;-67
2022/06/08 04:03:12;;;;;;;8.27;3.70;;;19.60;82.30;;;;;;5071571;28;20030;-68
2022/06/08 04:05:38;;;;;;;5.43;3.42;;;19.70;82.60;;;;;;5062600;28;20025;-68
2022/06/08 04:08:04;;;;;;;5.15;3.40;;;19.70;82.80;;;;;;5053306;28;20132;-68
2022/06/08 04:10:30;;;;;;;5.40;3.60;;;19.80;82.90;;;;;;5054153;28;20040;-68
2022/06/08 04:12:56;;;;;;;5.57;3.55;;;19.80;82.10;;;;;;5077802;28;20034;-68
2022/06/08 04:18:06;;;;;;;8.13;3.70;;;20.00;81.90;;;;;;5056114;28;20028;-68
2022/06/08 04:20:34;;;;;;;5.00;3.33;;;20.10;81.70;;;;;;5053587;28;20040;-66
2022/06/08 04:23:00;;;;;;;6.40;3.47;;;20.20;82.00;;;;;;5053416;28;20048;-70
2022/06/08 04:25:26;;;;;;;3.72;3.08;;;20.20;81.10;;;;;;5052695;28;20060;-69
2022/06/08 04:27:52;;;;;;;5.00;3.78;;;20.20;81.30;;;;;;5060621;28;20068;-69
2022/06/08 04:30:17;;;;;;;6.00;3.70;;;20.30;81.70;;;;;;5059748;28;20515;-68
2022/06/08 04:32:46;;;;;;;4.50;3.22;;;20.30;81.70;;;;;;5067312;28;20055;-68
2022/06/08 04:35:12;;;;;;;4.60;3.30;;;20.40;81.70;;;;;;5071231;28;20032;-69
2022/06/08 04:37:39;;;;;;;4.15;2.70;;;20.40;81.90;;;;;;5059299;28;20060;-68
2022/06/08 04:40:08;;;;;;;4.78;3.30;;;20.40;81.70;;;;;;5053895;28;20028;-68
2022/06/08 04:42:34;;;;;;;5.85;3.30;;;20.40;81.30;;;;;;5070737;28;20032;-69
2022/06/08 04:45:00;;;;;;;5.65;3.05;;;20.40;81.20;;;;;;5053205;28;20036;-69
2022/06/08 04:47:26;;;;;;;4.10;2.97;;;20.40;81.00;;;;;;5068792;28;20029;-69
2022/06/08 04:49:51;;;;;;;5.30;3.08;;;20.50;81.30;;;;;;5053329;28;20048;-69
2022/06/08 04:52:17;;;;;;;3.85;3.05;;;20.60;80.90;;;;;;5053726;28;20487;-69
2022/06/08 04:54:42;;;;;;;4.60;3.00;;;20.70;80.60;;;;;;5053210;28;20546;-69
2022/06/08 04:57:08;;;;;;;4.07;2.80;;;20.80;80.50;;;;;;5068916;28;20025;-69
2022/06/08 04:59:33;;;;;;;3.60;2.65;;;20.90;80.50;;;;;;5057548;28;20055;-69
2022/06/08 05:01:59;;;;;;;3.38;2.45;;;20.90;80.60;;;;;;5069548;28;20078;-69
2022/06/08 05:04:24;;;;;;;4.22;2.45;;;21.00;80.30;;;;;;5052326;28;20476;-69
2022/06/08 05:06:50;;;;;;;4.15;2.42;;;21.00;80.50;;;;;;5058833;28;20511;-69
2022/06/08 05:09:15;;;;;;;3.63;2.55;;;21.10;80.10;;;;;;5052530;28;20442;-69
2022/06/08 05:11:41;;;;;;;4.53;2.65;;;21.10;80.10;;;;;;5057928;28;20436;-69
2022/06/08 05:14:07;;;;;;;4.88;2.60;;;21.20;79.80;;;;;;5053425;28;20025;-69
2022/06/08 05:16:32;;;;;;;4.15;3.00;;;21.20;79.80;;;;;;5060731;28;20052;-69
2022/06/08 05:18:58;;;;;;;4.10;3.00;;;21.40;79.20;;;;;;5071933;28;20020;-69
2022/06/08 05:21:23;;;;;;;6.20;2.67;;;21.40;79.20;;;;;;5069415;28;20024;-69
2022/06/08 05:23:49;;;;;;;4.97;2.78;;;21.50;79.10;;;;;;5072681;28;20048;-69
2022/06/08 05:26:15;;;;;;;5.13;2.92;;;21.60;78.80;;;;;;5069891;28;20575;-68
2022/06/08 05:28:41;;;;;;;5.20;2.70;;;21.70;78.90;;;;;;5066502;28;20024;-69
2022/06/08 05:31:09;;;;;;;3.85;2.67;;;21.70;79.20;;;;;;5069848;28;20507;-69
2022/06/08 05:33:35;;;;;;;4.43;2.42;;;21.70;78.50;;;;;;5065453;28;20033;-69
2022/06/08 05:36:01;;;;;;;4.78;2.90;;;21.80;78.10;;;;;;5057612;28;20070;-69
2022/06/08 05:38:27;;;;;;;4.07;2.42;;;21.80;78.00;;;;;;5071222;28;20021;-69
2022/06/08 05:40:53;;;;;;;5.18;2.65;;;21.80;77.80;;;;;;5072248;28;20525;-69
2022/06/08 05:43:19;;;;;;;3.80;2.30;;;21.90;77.60;;;;;;5066957;28;20097;-68
2022/06/08 05:45:45;;;;;;;4.82;2.50;;;21.90;77.50;;;;;;5084885;28;20067;-69
2022/06/08 05:48:11;;;;;;;3.53;2.30;;;22.00;77.30;;;;;;5061183;28;20045;-69
2022/06/08 05:50:38;;;;;;;3.60;2.70;;;22.10;77.00;;;;;;5064882;28;20048;-69
2022/06/08 05:53:05;;;;;;;3.10;2.22;;;22.20;76.90;;;;;;5059827;28;20028;-68
2022/06/08 05:55:30;;;;;;;4.47;2.28;;;22.30;77.10;;;;;;5069095;28;20047;-69
2022/06/08 05:57:56;;;;;;;6.32;2.78;;;22.30;76.90;;;;;;5071742;28;20541;-69
2022/06/08 06:00:27;;;;;;;4.13;2.95;;;22.40;76.60;;;;;;5076866;28;20029;-69
2022/06/08 06:02:53;;;;;;;5.10;2.60;;;22.60;76.40;;;;;;5058563;28;20029;-68
2022/06/08 06:05:23;;;;;;;4.72;2.55;;;22.60;76.30;;;;;;5075314;28;20032;-68
2022/06/08 06:07:49;;;;;;;5.32;2.60;;;22.70;76.40;;;;;;5073606;28;20068;-68
2022/06/08 06:10:16;;;;;;;3.63;2.40;;;22.80;76.20;;;;;;5071632;28;20393;-69
2022/06/08 06:12:42;;;;;;;3.35;2.70;;;22.80;75.70;;;;;;5065772;28;20025;-68
2022/06/08 06:15:10;;;;;;;4.90;2.80;;;22.80;74.90;;;;;;5072147;28;20497;-69
2022/06/08 06:17:35;;;;;;;11.05;3.17;;;22.80;74.90;;;;;;5065395;28;20032;-69
2022/06/08 06:20:01;;;;;;;7.13;2.85;;;22.80;74.70;;;;;;5065740;28;20025;-69
2022/06/08 06:22:26;;;;;;;5.80;2.72;;;22.80;74.80;;;;;;5063063;28;20040;-69
2022/06/08 06:24:52;;;;;;;4.53;2.80;;;22.80;75.00;;;;;;5065080;28;20456;-69
2022/06/08 06:27:18;;;;;;;3.42;2.40;;;22.80;75.00;;;;;;5051563;28;20029;-70
2022/06/08 06:29:43;;;;;;;4.72;2.65;;;22.80;74.80;;;;;;5051512;28;20124;-69
2022/06/08 06:32:18;;;;;;;3.75;2.50;;;22.80;74.80;;;;;;5061102;28;20036;-68
2022/06/08 06:34:43;;;;;;;;;;;22.70;74.70;;;;;;5057401;28;20031;-68
2022/06/08 06:37:09;;;;;;;6.32;2.33;;;22.70;74.70;;;;;;5066350;28;20006;-69
2022/06/08 06:39:35;;;;;;;4.03;2.60;;;22.60;74.80;;;;;;5057643;28;20028;-68
2022/06/08 06:42:00;;;;;;;5.80;3.03;;;22.60;75.10;;;;;;5063661;28;20036;-68
2022/06/08 06:44:26;;;;;;;4.80;2.80;;;22.70;74.80;;;;;;5062847;28;20021;-68
2022/06/08 06:46:51;;;;;;;5.90;3.00;;;22.70;74.60;;;;;;5057889;28;20033;-68
2022/06/08 06:49:17;;;;;;;5.60;3.55;;;22.80;74.90;;;;;;5067626;28;20114;-68
2022/06/08 06:51:43;;;;;;;4.72;3.00;;;22.90;75.20;;;;;;5063552;28;20029;-68
2022/06/08 06:54:11;;;;;;;3.42;2.58;;;23.00;75.40;;;;;;5056882;28;20260;-68
2022/06/08 06:56:37;;;;;;;3.03;1.88;;;23.10;75.10;;;;;;5065079;28;20025;-69
2022/06/08 06:59:03;;;;;;;5.60;2.53;;;23.20;75.20;;;;;;5058420;28;20035;-68
2022/06/08 07:01:29;;;;;;;4.65;2.25;;;23.40;75.20;;;;;;5070328;28;20502;-68
2022/06/08 07:03:55;;;;;;;4.40;2.38;;;23.50;74.80;;;;;;5062085;28;20029;-68
2022/06/08 07:06:23;;;;;;;3.95;2.30;;;23.60;74.80;;;;;;5063487;28;20441;-68
2022/06/08 07:08:49;;;;;;;2.92;2.15;;;23.70;74.50;;;;;;5057484;28;20040;-68
2022/06/08 07:11:35;;;;;;;4.90;2.95;;;23.80;74.60;;;;;;5073060;28;20094;-68
2022/06/08 07:14:03;;;;;;;3.72;2.50;;;23.90;74.50;;;;;;5072354;28;20051;-68
2022/06/08 07:16:29;;;;;;;3.15;2.00;;;24.00;74.40;;;;;;5070034;28;20473;-68
2022/06/08 07:18:55;;;;;;;3.67;2.28;;;24.10;74.00;;;;;;5057853;28;20025;-68
2022/06/08 07:21:21;;;;;;;2.90;1.83;;;24.10;74.10;;;;;;5064556;28;20029;-68
2022/06/08 07:23:46;;;;;;;3.83;2.03;;;24.20;74.10;;;;;;5073671;28;20024;-68
2022/06/08 07:26:12;;;;;;;3.40;1.83;;;24.30;73.80;;;;;;5069894;28;20076;-68
2022/06/08 07:28:39;;;;;;;2.88;2.30;;;24.40;73.40;;;;;;5055994;28;20082;-68
2022/06/08 07:31:05;;;;;;;4.28;2.20;;;24.50;73.40;;;;;;5068951;28;20510;-68
2022/06/08 07:33:33;;;;;;;4.10;1.83;;;24.60;73.20;;;;;;5063937;28;20525;-68
2022/06/08 07:35:59;;;;;;;1.77;1.60;;;24.60;73.20;;;;;;5062905;28;20451;-68
2022/06/08 07:38:25;;;;;;;2.78;1.92;;;24.80;72.50;;;;;;5071948;28;20025;-69
2022/06/08 07:40:51;;;;;;;3.13;2.08;;;24.90;72.60;;;;;;5073190;28;20547;-68
2022/06/08 07:43:17;;;;;;;3.42;1.80;;;25.00;72.30;;;;;;5070460;28;20391;-68
2022/06/08 07:45:43;;;;;;;2.00;1.60;;;25.10;72.20;;;;;;5071703;28;20024;-67
2022/06/08 07:50:52;;;;;;;3.00;1.70;;;25.30;71.20;;;;;;5066676;28;20045;-67
2022/06/08 07:53:18;;;;;;;3.90;1.90;;;25.40;71.30;;;;;;5072127;28;20048;-68
2022/06/08 07:55:44;;;;;;;2.72;1.80;;;25.50;70.60;;;;;;5060843;28;20368;-67
2022/06/08 07:58:10;;;;;;;3.08;1.98;;;25.60;70.50;;;;;;5055684;28;20052;-68
2022/06/08 08:00:35;;;;;;;3.35;1.65;;;25.60;70.10;;;;;;5060910;28;20032;-68
2022/06/08 08:03:02;;;;;;;1.55;1.40;;;25.60;70.20;;;;;;5069898;28;20025;-68
2022/06/08 08:05:27;;;;;;;2.33;1.52;;;25.50;69.70;;;;;;5057067;28;20136;-68
2022/06/08 08:07:54;;;;;;;2.88;1.88;;;25.40;70.10;;;;;;5059022;28;20102;-68
2022/06/08 08:10:23;;;;;;;2.58;1.73;;;25.30;70.30;;;;;;5069557;28;20071;-68
2022/06/08 08:12:49;;;;;;;2.05;1.42;;;25.20;70.00;;;;;;5067000;28;20446;-68
2022/06/08 08:15:16;;;;;;;2.63;1.38;;;25.10;70.00;;;;;;5059279;28;20029;-68
2022/06/08 08:17:42;;;;;;;2.25;1.60;;;25.10;69.60;;;;;;5068722;28;20028;-67
2022/06/08 08:20:11;;;;;;;2.25;1.60;;;25.10;70.10;;;;;;5065320;28;20333;-67
2022/06/08 08:22:37;;;;;;;2.22;1.75;;;25.00;70.30;;;;;;5063827;28;20033;-67
2022/06/08 08:25:03;;;;;;;2.53;1.70;;;24.90;70.20;;;;;;5053256;28;20021;-68
2022/06/08 08:27:29;;;;;;;3.13;1.73;;;24.90;70.00;;;;;;5057046;28;20025;-68
2022/06/08 08:29:54;;;;;;;4.50;2.00;;;24.90;70.20;;;;;;5063294;28;20047;-67
2022/06/08 08:32:20;;;;;;;4.53;2.15;;;24.90;69.90;;;;;;5061083;28;20032;-68
2022/06/08 08:34:46;;;;;;;2.97;1.88;;;24.90;70.50;;;;;;5067964;28;20501;-68
2022/06/08 08:37:11;;;;;;;2.83;1.73;;;24.90;70.10;;;;;;5070796;28;20370;-68
2022/06/08 08:39:37;;;;;;;2.20;1.40;;;25.00;70.30;;;;;;5070838;28;20051;-68
2022/06/08 08:42:22;;;;;;;6.22;1.80;;;25.00;70.30;;;;;;5061456;28;20115;-68
2022/06/08 08:45:05;;;;;;;3.83;1.67;;;25.00;70.00;;;;;;5061554;28;20032;-67
2022/06/08 08:47:40;;;;;;;4.05;1.92;;;25.10;70.60;;;;;;5062535;28;20046;-68
2022/06/08 08:50:32;;;;;;;3.00;1.65;;;25.30;70.80;;;;;;5074070;28;20115;-68
2022/06/08 08:53:10;;;;;;;3.00;1.90;;;25.40;70.00;;;;;;5063855;28;20067;-68
2022/06/08 08:56:03;;;;;;;5.85;2.00;;;25.60;70.40;;;;;;5059398;28;20069;-68
2022/06/08 08:58:34;;;;;;;2.45;1.45;;;25.70;69.30;;;;;;5059756;28;20033;-68
2022/06/08 09:01:14;;;;;;;2.47;1.80;;;25.80;68.50;;;;;;5056443;28;20039;-68
2022/06/08 09:03:44;;;;;;;9.45;1.58;;;25.90;69.10;;;;;;5063035;28;20029;-68
2022/06/08 09:06:19;;;;;;;2.50;1.23;;;26.10;68.20;;;;;;5065408;28;20029;-68
2022/06/08 09:08:53;;;;;;;1.58;1.27;;;26.20;68.10;;;;;;5064154;28;20040;-68
2022/06/08 09:11:25;;;;;;;3.95;1.70;;;26.30;67.50;;;;;;5063868;28;20052;-68
2022/06/08 09:14:06;;;;;;;4.97;1.50;;;26.30;67.80;;;;;;5055559;28;20025;-68
2022/06/08 09:16:39;;;;;;;3.45;1.67;;;26.40;66.50;;;;;;5067382;28;20035;-68
2022/06/08 09:19:25;;;;;;;3.83;2.30;;;26.50;67.20;;;;;;5065139;28;20029;-68
2022/06/08 09:21:53;;;;;;;3.80;1.55;;;26.60;66.70;;;;;;5061703;28;20111;-68
2022/06/08 09:24:28;;;;;;;2.35;1.40;;;26.70;65.70;;;;;;5053194;28;20276;-68
2022/06/08 09:26:57;;;;;;;6.40;1.90;;;26.70;65.50;;;;;;5058692;28;20111;-68
2022/06/08 09:29:29;;;;;;;2.25;1.35;;;26.80;66.60;;;;;;5071929;28;20029;-68
2022/06/08 09:31:55;;;;;;;1.58;1.30;;;26.90;66.50;;;;;;5068314;28;20025;-69
2022/06/08 09:34:26;;;;;;;1.55;1.25;;;27.00;65.10;;;;;;5051250;28;20056;-68
2022/06/08 09:37:15;;;;;;;3.30;1.30;;;27.00;64.90;;;;;;5058942;28;20058;-68
2022/06/08 09:39:43;;;;;;;1.70;1.30;;;27.10;64.80;;;;;;5067191;28;20029;-67
2022/06/08 09:42:32;;;;;;;1.90;1.30;;;27.20;64.00;;;;;;5070666;28;20039;-68
2022/06/08 09:45:14;;;;;;;2.90;1.10;;;27.30;63.30;;;;;;5071997;28;20028;-68
2022/06/08 09:54:01;;;;;;;2.80;1.38;;;27.60;63.00;;;;;;5072208;28;20033;-68
2022/06/08 09:56:56;;;;;;;1.33;1.10;;;27.60;63.00;;;;;;5070419;28;20047;-69
2022/06/08 09:59:44;;;;;;;3.63;1.15;;;27.80;62.60;;;;;;5069338;28;20036;-68
2022/06/08 10:02:46;;;;;;;2.05;1.30;;;27.80;61.40;;;;;;5068748;28;20093;-69
2022/06/08 10:05:56;;;;;;;4.60;1.23;;;27.80;61.70;;;;;;5070129;28;20025;-68
2022/06/08 10:08:25;;;;;;;5.15;1.30;;;27.90;61.90;;;;;;5046986;28;20143;-68
2022/06/08 10:11:03;;;;;;;1.83;1.13;;;27.90;61.10;;;;;;5070485;28;20036;-68
2022/06/08 10:13:52;;;;;;;3.60;1.38;;;27.90;61.50;;;;;;5062810;28;20044;-68
2022/06/08 10:16:24;;;;;;;3.15;1.60;;;28.00;60.60;;;;;;5059841;28;20067;-67
2022/06/08 10:18:54;;;;;;;3.75;1.30;;;27.90;60.60;;;;;;5051417;28;20143;-68
2022/06/08 10:21:27;;;;;;;1.50;1.20;;;27.90;60.50;;;;;;5051367;28;20162;-68
2022/06/08 10:24:10;;;;;;;13.67;1.70;;;27.80;60.80;;;;;;5050159;28;20174;-68
2022/06/08 10:26:44;;;;;;;2.53;1.35;;;27.80;60.80;;;;;;5055568;28;20286;-68
2022/06/08 10:29:43;;;;;;;2.38;1.20;;;27.80;60.80;;;;;;5071426;28;20033;-68
2022/06/08 10:32:29;;;;;;;3.33;1.73;;;27.70;60.60;;;;;;5064756;28;20074;-68
2022/06/08 10:34:55;;;;;;;2.72;1.40;;;27.70;60.80;;;;;;5057363;28;20021;-68
2022/06/08 10:37:29;;;;;;;5.68;1.65;;;27.60;60.70;;;;;;5051920;28;20075;-68
2022/06/08 10:39:54;;;;;;;2.17;1.50;;;27.50;61.10;;;;;;5050895;28;20029;-68
2022/06/08 10:42:39;;;;;;;2.88;1.60;;;27.40;61.00;;;;;;5051700;28;20037;-68
2022/06/08 10:45:37;;;;;;;2.85;1.67;;;27.40;61.00;;;;;;5051249;28;20075;-68
2022/06/08 10:48:14;;;;;;;2.75;1.40;;;27.30;61.20;;;;;;5041067;28;20036;-67
2022/06/08 10:50:45;;;;;;;2.35;1.40;;;27.20;61.20;;;;;;5071039;28;20049;-67
2022/06/08 10:56:28;;;;;;;2.22;1.55;;;27.00;61.20;;;;;;5051626;28;20036;-68
2022/06/08 10:59:03;;;;;;;;;;;27.00;61.60;;;;;;5051333;28;20036;-68
2022/06/08 11:01:57;;;;;;;2.90;1.40;;;26.90;61.70;;;;;;5050287;28;19909;-68
2022/06/08 11:04:29;;;;;;;3.58;1.38;;;26.80;62.10;;;;;;5071204;28;20033;-68
2022/06/08 11:07:10;;;;;;;1.48;1.20;;;26.80;62.50;;;;;;5068832;28;20032;-68
2022/06/08 11:09:36;;;;;;;1.60;1.30;;;26.80;61.90;;;;;;5069743;28;20033;-68
2022/06/08 11:12:11;;;;;;;4.28;1.50;;;26.70;62.00;;;;;;5062218;28;20392;-69
2022/06/08 11:14:42;;;;;;;2.25;1.40;;;26.70;62.20;;;;;;5051036;28;20029;-68
2022/06/08 11:17:15;;;;;;;1.50;1.40;;;26.60;62.30;;;;;;5059520;28;20119;-68
2022/06/08 11:19:42;;;;;;;2.83;1.60;;;26.60;62.60;;;;;;5070818;28;20028;-68
2022/06/08 11:22:21;;;;;;;3.25;1.35;;;26.60;62.60;;;;;;5065525;28;20484;-67
2022/06/08 11:24:50;;;;;;;1.52;1.30;;;26.50;62.30;;;;;;5068365;28;20032;-68
2022/06/08 11:27:30;;;;;;;3.45;1.30;;;26.60;62.30;;;;;;5056842;28;20547;-68
2022/06/08 11:30:00;;;;;;;2.15;1.20;;;26.60;62.50;;;;;;5054952;28;20066;-68
2022/06/08 11:32:32;;;;;;;1.60;1.20;;;26.60;62.70;;;;;;5058375;28;20040;-68
2022/06/08 11:35:35;;;;;;;1.95;1.17;;;26.60;62.90;;;;;;5052604;28;20021;-67
2022/06/08 11:38:16;;;;;;;1.25;1.10;;;26.60;62.60;;;;;;5053905;28;20047;-67
2022/06/08 11:40:42;;;;;;;1.60;1.35;;;26.60;62.80;;;;;;5050919;28;20033;-67
2022/06/08 11:43:13;;;;;;;1.90;1.30;;;26.60;62.80;;;;;;5068214;28;20482;-68
2022/06/08 11:45:44;;;;;;;4.78;1.70;;;26.60;63.10;;;;;;5072335;28;20021;-68
2022/06/08 11:48:17;;;;;;;2.63;1.40;;;26.60;62.60;;;;;;5055815;28;20086;-68
2022/06/08 11:50:58;;;;;;;1.88;1.42;;;26.60;62.00;;;;;;5053794;28;20392;-69
2022/06/08 11:53:32;;;;;;;2.17;1.33;;;26.70;62.50;;;;;;5068149;28;20496;-68
2022/06/08 11:56:29;;;;;;;1.30;1.20;;;26.70;62.70;;;;;;5061428;28;20029;-68
2022/06/08 11:58:56;;;;;;;1.60;1.20;;;26.70;63.20;;;;;;5063254;28;20024;-68
2022/06/08 12:01:44;;;;;;;1.85;1.20;;;26.70;63.00;;;;;;5078617;28;20047;-68
2022/06/08 12:04:16;;;;;;;4.63;2.22;;;26.70;62.90;;;;;;5059959;28;20112;-68
2022/06/08 12:06:43;;;;;;;3.30;1.73;;;26.80;63.30;;;;;;5069749;28;20047;-69
2022/06/08 12:09:18;;;;;;;17.42;12.20;;;26.70;63.30;;;;;;5060579;28;20088;-70
2022/06/08 12:12:03;;;;;;;12.32;8.35;;;26.70;63.40;;;;;;5066823;28;20083;-68
2022/06/08 12:14:37;;;;;;;6.82;4.45;;;26.80;63.10;;;;;;5061015;28;20491;-68
2022/06/08 12:17:10;;;;;;;4.22;2.78;;;26.80;63.10;;;;;;5067690;28;20101;-69
2022/06/08 12:19:47;;;;;;;2.63;1.85;;;26.80;63.20;;;;;;5053379;28;20044;-68
2022/06/08 12:22:32;;;;;;;2.03;1.60;;;26.80;62.80;;;;;;5070957;28;20040;-68
2022/06/08 12:25:09;;;;;;;4.05;1.52;;;26.90;63.10;;;;;;5056342;28;20025;-67
2022/06/08 12:27:59;;;;;;;3.15;1.90;;;26.90;63.00;;;;;;5068577;28;21816;-68
2022/06/08 12:30:32;;;;;;;2.22;1.40;;;27.10;62.90;;;;;;5061713;28;20523;-69
2022/06/08 12:33:18;;;;;;;3.17;1.80;;;27.30;62.50;;;;;;5064852;28;20482;-67
2022/06/08 12:35:57;;;;;;;3.13;1.55;;;27.40;62.40;;;;;;5070144;28;20043;-67
2022/06/08 12:38:31;;;;;;;3.88;1.75;;;27.50;62.20;;;;;;5076257;28;20360;-68
2022/06/08 12:41:09;;;;;;;5.00;1.80;;;27.60;61.70;;;;;;5077766;28;20518;-68
2022/06/08 12:43:48;;;;;;;2.05;1.30;;;27.70;61.80;;;;;;5063789;28;20452;-68
2022/06/08 12:46:31;;;;;;;1.42;1.00;;;27.90;61.20;;;;;;5067983;28;20094;-69
2022/06/08 12:49:22;;;;;;;2.00;1.25;;;28.00;60.80;;;;;;5071660;28;20481;-69
2022/06/08 12:51:57;;;;;;;2.38;1.20;;;28.20;60.60;;;;;;5060196;28;20050;-68
2022/06/08 12:54:33;;;;;;;1.17;1.02;;;28.40;59.80;;;;;;5061214;28;20379;-68
2022/06/08 12:57:18;;;;;;;2.03;1.00;;;28.30;59.90;;;;;;5059536;28;20032;-68
2022/06/08 12:59:47;;;;;;;2.10;1.50;;;28.30;59.70;;;;;;5053116;28;20448;-70
2022/06/08 13:02:20;;;;;;;1.45;1.10;;;28.20;59.30;;;;;;5055218;28;20087;-70
2022/06/08 13:04:47;;;;;;;3.17;1.27;;;28.10;59.90;;;;;;5052974;28;20379;-69
2022/06/08 13:07:16;;;;;;;2.50;1.20;;;28.10;59.60;;;;;;5053930;28;20044;-73
2022/06/08 13:09:43;;;;;;;1.70;1.15;;;28.10;59.80;;;;;;5052133;28;20507;-70
2022/06/08 13:12:12;;;;;;;2.15;1.30;;;28.00;59.70;;;;;;5058590;28;20060;-69
2022/06/08 13:14:39;;;;;;;5.38;1.15;;;28.00;59.90;;;;;;5061827;28;20021;-68
2022/06/08 13:17:05;;;;;;;3.50;1.33;;;27.90;59.20;;;;;;5058982;28;20036;-67
2022/06/08 13:19:31;;;;;;;2.58;1.05;;;27.80;59.20;;;;;;5067277;28;20033;-66
2022/06/08 13:21:56;;;;;;;2.17;1.30;;;27.70;59.20;;;;;;5068719;28;20494;-67
2022/06/08 13:24:22;;;;;;;2.55;1.33;;;27.60;58.90;;;;;;5061043;28;20107;-67
2022/06/08 13:26:48;;;;;;;2.10;1.20;;;27.50;58.90;;;;;;5054014;28;20548;-67
2022/06/08 13:29:16;;;;;;;2.08;0.98;;;27.50;59.20;;;;;;5057181;28;20349;-67
2022/06/08 13:31:42;;;;;;;2.83;1.30;;;27.50;59.00;;;;;;5062743;28;20494;-68